createdAt,value
2018-08-28T00:00:40.090Z,100473.00
2018-08-28T00:05:43.092Z,100467.00
2018-08-28T00:10:46.136Z,100470.00
2018-08-28T00:15:49.104Z,100479.00
2018-08-28T00:20:52.109Z,100486.00
2018-08-28T00:25:55.142Z,100485.00
2018-08-28T00:30:58.148Z,100479.00
2018-08-28T00:36:01.253Z,100476.00
2018-08-28T00:41:04.286Z,100482.00
2018-08-28T00:46:07.447Z,100476.00
2018-08-28T00:51:10.447Z,100481.00
2018-08-28T00:56:13.422Z,100477.00
2018-08-28T01:01:16.658Z,100481.00
2018-08-28T01:06:19.672Z,100486.00
2018-08-28T01:11:22.647Z,100494.00
2018-08-28T01:16:25.868Z,100494.00
2018-08-28T01:21:28.937Z,100492.00
2018-08-28T01:26:31.932Z,100500.00
2018-08-28T01:31:34.959Z,100503.00
2018-08-28T01:36:37.905Z,100500.00
2018-08-28T01:41:40.871Z,100496.00
2018-08-28T01:46:43.937Z,100506.00
2018-08-28T01:51:47.210Z,100497.00
2018-08-28T01:56:50.238Z,100495.00
2018-08-28T02:01:53.274Z,100510.00
2018-08-28T02:06:56.291Z,100511.00
2018-08-28T02:11:59.292Z,100519.00
2018-08-28T02:17:02.578Z,100509.00
2018-08-28T02:22:05.611Z,100515.00
2018-08-28T02:27:08.630Z,100520.00
2018-08-28T02:32:11.622Z,100514.00
2018-08-28T02:37:14.691Z,100524.00
2018-08-28T02:42:17.718Z,100512.00
2018-08-28T02:47:20.795Z,100517.00
2018-08-28T02:52:23.893Z,100523.00
2018-08-28T02:57:26.879Z,100528.00
2018-08-28T03:02:29.914Z,100534.00
2018-08-28T03:07:32.936Z,100530.00
2018-08-28T03:12:35.954Z,100529.00
2018-08-28T03:17:39.061Z,100533.00
2018-08-28T03:22:42.060Z,100533.00
2018-08-28T03:27:45.248Z,100530.00
2018-08-28T03:32:48.344Z,100536.00
2018-08-28T03:37:51.385Z,100535.00
2018-08-28T03:42:54.826Z,100539.00
2018-08-28T03:47:57.889Z,100535.00
2018-08-28T03:53:00.928Z,100535.00
2018-08-28T03:58:03.984Z,100539.00
2018-08-28T04:03:06.980Z,100540.00
2018-08-28T04:08:10.091Z,100547.00
2018-08-28T04:13:13.102Z,100548.00
2018-08-28T04:18:16.189Z,100553.00
2018-08-28T04:23:19.393Z,100552.00
2018-08-28T04:28:22.419Z,100548.00
2018-08-28T04:33:25.519Z,100555.00
2018-08-28T04:38:28.712Z,100567.00
2018-08-28T04:43:31.785Z,100564.00
2018-08-28T04:48:34.918Z,100570.00
2018-08-28T04:53:38.039Z,100574.00
2018-08-28T04:58:41.081Z,100579.00
2018-08-28T05:03:44.161Z,100588.00
2018-08-28T05:08:47.301Z,100595.00
2018-08-28T05:13:50.338Z,100597.00
2018-08-28T05:18:53.354Z,100593.00
2018-08-28T05:23:56.514Z,100599.00
2018-08-28T05:28:59.795Z,100611.00
2018-08-28T05:34:02.820Z,100623.00
2018-08-28T05:39:06.845Z,100626.00
2018-08-28T05:44:09.871Z,100627.00
2018-08-28T05:49:12.892Z,100639.00
2018-08-28T05:54:16.020Z,100637.00
2018-08-28T05:59:19.166Z,100660.00
2018-08-28T06:04:22.216Z,100655.00
2018-08-28T06:09:25.132Z,100668.00
2018-08-28T06:14:28.364Z,100671.00
2018-08-28T06:19:31.356Z,100680.00
2018-08-28T06:24:34.359Z,100698.00
2018-08-28T06:29:37.708Z,100706.00
2018-08-28T06:34:41.007Z,100685.00
2018-08-28T06:39:44.190Z,100699.00
2018-08-28T06:44:47.186Z,100699.00
2018-08-28T06:49:50.143Z,100693.00
2018-08-28T06:54:53.156Z,100690.00
2018-08-28T06:59:56.443Z,100687.00
2018-08-28T07:04:59.660Z,100693.00
2018-08-28T07:10:02.675Z,100698.00
2018-08-28T07:15:05.695Z,100710.00
2018-08-28T07:20:08.896Z,100708.00
2018-08-28T07:25:11.876Z,100710.00
2018-08-28T07:30:14.894Z,100706.00
2018-08-28T07:35:17.943Z,100716.00
2018-08-28T07:40:20.970Z,100712.00
2018-08-28T07:45:24.648Z,100714.00
2018-08-28T07:50:27.620Z,100718.00
2018-08-28T07:55:30.746Z,100709.00
2018-08-28T08:00:33.728Z,100719.00
2018-08-28T08:05:36.792Z,100715.00
2018-08-28T08:10:39.788Z,100721.00
2018-08-28T08:15:42.795Z,100713.00
2018-08-28T08:20:45.755Z,100718.00
2018-08-28T08:25:48.828Z,100733.00
2018-08-28T08:30:52.004Z,100741.00
2018-08-28T08:35:54.984Z,100742.00
2018-08-28T08:40:58.101Z,100744.00
2018-08-28T08:46:01.074Z,100725.00
2018-08-28T08:51:04.102Z,100718.00
2018-08-28T08:56:07.102Z,100698.00
2018-08-28T09:01:10.193Z,100719.00
2018-08-28T09:06:13.354Z,100708.00
2018-08-28T09:11:16.660Z,100705.00
2018-08-28T09:16:19.677Z,100705.00
2018-08-28T09:21:22.870Z,100718.00
2018-08-28T09:26:25.936Z,100708.00
2018-08-28T09:31:29.004Z,100704.00
2018-08-28T09:36:32.214Z,100715.00
2018-08-28T09:41:35.363Z,100693.00
2018-08-28T09:46:38.353Z,100704.00
2018-08-28T09:51:41.386Z,100698.00
2018-08-28T09:56:44.477Z,100696.00
2018-08-28T10:01:47.547Z,100701.00
2018-08-28T10:06:50.927Z,100685.00
2018-08-28T10:11:53.911Z,100691.00
2018-08-28T10:16:56.915Z,100676.00
2018-08-28T10:21:59.938Z,100679.00
2018-08-28T10:27:02.991Z,100671.00
2018-08-28T10:32:06.208Z,100660.00
2018-08-28T10:37:09.196Z,100643.00
2018-08-28T10:42:12.320Z,100644.00
2018-08-28T10:47:15.372Z,100642.00
2018-08-28T10:52:18.470Z,100631.00
2018-08-28T10:57:21.479Z,100626.00
2018-08-28T11:02:24.513Z,100626.00
2018-08-28T11:07:27.703Z,100621.00
2018-08-28T11:12:30.846Z,100614.00
2018-08-28T11:17:33.882Z,100611.00
2018-08-28T11:22:36.972Z,100606.00
2018-08-28T11:27:40.066Z,100611.00
2018-08-28T11:32:43.118Z,100619.00
2018-08-28T11:37:46.165Z,100618.00
2018-08-28T11:42:49.146Z,100611.00
2018-08-28T11:47:52.283Z,100617.00
2018-08-28T11:52:55.276Z,100599.00
2018-08-28T11:57:58.312Z,100592.00
2018-08-28T12:03:01.350Z,100603.00
2018-08-28T12:08:04.601Z,100583.00
2018-08-28T12:13:07.650Z,100588.00
2018-08-28T12:18:10.824Z,100580.00
2018-08-28T12:23:13.922Z,100565.00
2018-08-28T12:28:17.021Z,100565.00
2018-08-28T12:33:20.056Z,100571.00
2018-08-28T12:38:23.084Z,100552.00
2018-08-28T12:43:26.125Z,100545.00
2018-08-28T12:48:29.244Z,100548.00
2018-08-28T12:53:32.290Z,100548.00
2018-08-28T12:58:35.364Z,100553.00
2018-08-28T13:03:38.525Z,100529.00
2018-08-28T13:08:41.566Z,100534.00
2018-08-28T13:13:44.648Z,100537.00
2018-08-28T13:18:47.628Z,100527.00
2018-08-28T13:23:50.750Z,100535.00
2018-08-28T13:28:54.007Z,100525.00
2018-08-28T13:33:57.052Z,100514.00
2018-08-28T13:39:00.092Z,100514.00
2018-08-28T13:44:03.137Z,100506.00
2018-08-28T13:49:06.233Z,100503.00
2018-08-28T13:54:09.253Z,100496.00
2018-08-28T13:59:12.551Z,100490.00
2018-08-28T14:04:15.656Z,100480.00
2018-08-28T14:09:18.660Z,100474.00
2018-08-28T14:14:21.645Z,100475.00
2018-08-28T14:19:24.714Z,100480.00
2018-08-28T14:24:27.791Z,100465.00
2018-08-28T14:29:31.028Z,100457.00
2018-08-28T14:34:33.959Z,100467.00
2018-08-28T14:39:37.004Z,100466.00
2018-08-28T14:44:40.149Z,100463.00
2018-08-28T14:49:43.141Z,100449.00
2018-08-28T14:54:46.092Z,100455.00
2018-08-28T14:59:49.416Z,100446.00
2018-08-28T15:04:52.474Z,100455.00
2018-08-28T15:09:55.461Z,100442.00
2018-08-28T15:14:58.484Z,100441.00
2018-08-28T15:20:01.649Z,100434.00
2018-08-28T15:25:07.363Z,100429.00
2018-08-28T15:30:10.467Z,100437.00
2018-08-28T15:35:13.616Z,100419.00
2018-08-28T15:40:16.850Z,100429.00
2018-08-28T15:45:19.985Z,100429.00
2018-08-28T15:50:23.636Z,100431.00
2018-08-28T15:55:26.711Z,100421.00
2018-08-28T16:00:29.773Z,100411.00
2018-08-28T16:05:32.809Z,100414.00
2018-08-28T16:10:35.899Z,100400.00
2018-08-28T16:15:38.879Z,100413.00
2018-08-28T16:20:41.991Z,100401.00
2018-08-28T16:25:45.162Z,100390.00
2018-08-28T16:30:48.194Z,100385.00
2018-08-28T16:35:51.508Z,100377.00
2018-08-28T16:40:54.473Z,100368.00
2018-08-28T16:45:57.537Z,100364.00
2018-08-28T16:51:00.465Z,100373.00
2018-08-28T16:56:03.429Z,100366.00
2018-08-28T17:01:06.505Z,100348.00
2018-08-28T17:06:09.545Z,100353.00
2018-08-28T17:11:12.660Z,100347.00
2018-08-28T17:16:15.624Z,100343.00
2018-08-28T17:21:18.732Z,100337.00
2018-08-28T17:26:22.543Z,100348.00
2018-08-28T17:31:25.502Z,100340.00
2018-08-28T17:36:28.509Z,100333.00
2018-08-28T17:41:31.508Z,100331.00
2018-08-28T17:46:34.456Z,100333.00
2018-08-28T17:51:37.535Z,100322.00
2018-08-28T17:56:40.458Z,100324.00
2018-08-28T18:01:43.699Z,100318.00
2018-08-28T18:06:46.723Z,100308.00
2018-08-28T18:11:49.832Z,100310.00
2018-08-28T18:16:52.999Z,100303.00
2018-08-28T18:21:56.352Z,100301.00
2018-08-28T18:26:59.210Z,100297.00
2018-08-28T18:32:02.411Z,100292.00
2018-08-28T18:37:05.763Z,100278.00
2018-08-28T18:42:08.992Z,100279.00
2018-08-28T18:47:12.274Z,100271.00
2018-08-28T18:52:15.243Z,100275.00
2018-08-28T18:57:18.228Z,100270.00
2018-08-28T19:02:21.472Z,100267.00
2018-08-28T19:07:24.697Z,100273.00
2018-08-28T19:12:27.672Z,100263.00
2018-08-28T19:17:30.892Z,100275.00
2018-08-28T19:22:33.823Z,100277.00
2018-08-28T19:27:37.018Z,100276.00
2018-08-28T19:32:40.125Z,100273.00
2018-08-28T19:37:43.335Z,100279.00
2018-08-28T19:42:46.533Z,100271.00
2018-08-28T19:47:49.653Z,100266.00
2018-08-28T19:52:52.759Z,100267.00
2018-08-28T19:57:55.857Z,100269.00
2018-08-28T20:02:59.063Z,100269.00
2018-08-28T20:08:02.283Z,100254.00
2018-08-28T20:13:05.235Z,100253.00
2018-08-28T20:18:08.161Z,100247.00
2018-08-28T20:23:11.383Z,100248.00
2018-08-28T20:28:14.717Z,100238.00
2018-08-28T20:33:17.810Z,100239.00
2018-08-28T20:38:21.030Z,100241.00
2018-08-28T20:43:24.219Z,100234.00
2018-08-28T20:48:27.235Z,100230.00
2018-08-28T20:53:30.571Z,100225.00
2018-08-28T20:58:33.747Z,100228.00
2018-08-28T21:03:36.971Z,100218.00
2018-08-28T21:08:39.997Z,100220.00
2018-08-28T21:13:43.806Z,100213.00
2018-08-28T21:18:46.928Z,100187.00
2018-08-28T21:23:50.250Z,100201.00
2018-08-28T21:28:53.435Z,100197.00
2018-08-28T21:33:56.629Z,100190.00
2018-08-28T21:38:59.856Z,100194.00
2018-08-28T21:44:03.260Z,100191.00
2018-08-28T21:49:10.161Z,100196.00
2018-08-28T21:54:13.216Z,100182.00
2018-08-28T21:59:16.388Z,100169.00
2018-08-28T22:04:19.423Z,100169.00
2018-08-28T22:09:22.603Z,100163.00
2018-08-28T22:14:25.781Z,100157.00
2018-08-28T22:19:29.023Z,100157.00
2018-08-28T22:35:36.387Z,100148.00
2018-08-28T22:40:39.352Z,100147.00
2018-08-28T22:45:42.441Z,100152.00
2018-08-28T22:50:45.989Z,100155.00
2018-08-28T22:55:49.139Z,100154.00
2018-08-28T23:00:52.322Z,100147.00
2018-08-28T23:05:55.275Z,100151.00
2018-08-28T23:10:58.372Z,100152.00
2018-08-28T23:16:01.576Z,100145.00
2018-08-28T23:21:04.724Z,100146.00
2018-08-28T23:26:07.881Z,100138.00
2018-08-28T23:31:10.813Z,100142.00
2018-08-28T23:36:13.924Z,100147.00
2018-08-28T23:41:17.152Z,100133.00
2018-08-28T23:46:20.144Z,100119.00
2018-08-28T23:51:23.244Z,100118.00
2018-08-28T23:56:26.389Z,100108.00
